Time;durP1;ratioP1;P1;durP2;ratioP2;P2;SDS_P1;SDS_P2;PMS_P1;PMS_P2;Temp;Humidity;BMP_temperature;BMP_pressure;BME280_temperature;BME280_humidity;BME280_pressure;Samples;Min_cycle;Max_cycle;Signal;HPM_P1;HPM_P2
2024/01/10 00:01:30;;;;;;;;;;;;;;;-140.72;0.00;52565.38;5093640;28;19923;-71
2024/01/10 00:03:55;;;;;;;;;;;;;;;-140.72;0.00;52541.03;5091262;28;19916;-70
2024/01/10 00:06:21;;;;;;;;;;;;;;;-140.72;0.00;52534.94;5074548;28;19970;-70
2024/01/10 00:08:46;;;;;;;;;;;;;;;-140.72;0.00;52528.84;5099576;28;20393;-71
2024/01/10 00:11:11;;;;;;;;;;;;;;;-140.72;0.00;52567.41;5102297;28;19965;-71
2024/01/10 00:13:37;;;;;;;;;;;;;;;-140.72;0.00;52577.53;5094931;28;19993;-71
2024/01/10 00:16:02;;;;;;;;;;;;;;;-140.72;0.00;52591.75;5104772;28;19931;-71
2024/01/10 00:18:27;;;;;;;;;;;;;;;-140.72;0.00;52547.09;5105418;28;20124;-71
2024/01/10 00:20:55;;;;;;;;;;;;;;;-140.72;0.00;52571.47;5088896;28;19916;-71
2024/01/10 00:23:21;;;;;;;;;;;;;;;-140.72;0.00;52567.41;5099937;28;19920;-71
2024/01/10 00:25:46;;;;;;;;;;;;;;;-140.72;0.00;52567.41;5084297;28;19940;-71
2024/01/10 00:28:12;;;;;;;;;;;;;;;-140.72;0.00;52545.06;5099236;28;19924;-71
2024/01/10 00:30:37;;;;;;;;;;;;;;;-140.72;0.00;52577.53;5099752;28;19936;-71
2024/01/10 00:33:02;;;;;;;;;;;;;;;-140.72;0.00;52549.13;5097166;28;19920;-71
2024/01/10 00:35:28;;;;;;;;;;;;;;;-140.72;0.00;52555.22;5100079;28;19962;-70
2024/01/10 00:37:53;;;;;;;;;;;;;;;-140.72;0.00;52528.84;5086248;28;19967;-70
2024/01/10 00:40:18;;;;;;;;;;;;;;;-140.72;0.00;52520.72;5097927;28;19928;-71
2024/01/10 00:42:43;;;;;;;;;;;;;;;-140.72;0.00;52567.41;5098612;28;19920;-70
2024/01/10 00:45:09;;;;;;;;;;;;;;;-140.72;0.00;52567.41;5100241;28;19923;-71
2024/01/10 00:47:34;;;;;;;;;;;;;;;-140.72;0.00;52583.63;5098763;28;19916;-70
2024/01/10 00:49:59;;;;;;;;;;;;;;;-140.72;0.00;52543.03;5103711;28;19928;-71
2024/01/10 00:52:24;;;;;;;;;;;;;;;-140.72;0.00;52557.25;5081679;28;19972;-71
2024/01/10 00:54:49;;;;;;;;;;;;;;;-140.72;0.00;52557.25;5097658;28;19920;-71
2024/01/10 00:57:15;;;;;;;;;;;;;;;-140.72;0.00;52603.94;5080061;28;20097;-70
2024/01/10 00:59:40;;;;;;;;;;;;;;;-140.72;0.00;52577.53;5099200;28;20334;-70
2024/01/10 01:02:05;;;;;;;;;;;;;;;-140.72;0.00;52545.06;5098395;28;19920;-71
2024/01/10 01:04:30;;;;;;;;;;;;;;;-140.72;0.00;52565.38;5101100;28;19920;-70
2024/01/10 01:06:56;;;;;;;;;;;;;;;-140.72;0.00;52561.31;5096325;28;19920;-70
2024/01/10 01:09:21;;;;;;;;;;;;;;;-140.72;0.00;52541.03;5100849;28;19971;-70
2024/01/10 01:11:46;;;;;;;;;;;;;;;-140.72;0.00;52547.09;5101561;28;20451;-71
2024/01/10 01:14:11;;;;;;;;;;;;;;;-140.72;0.00;52589.72;5084521;28;19920;-71
2024/01/10 01:16:36;;;;;;;;;;;;;;;-140.72;0.00;52551.16;5099536;28;19976;-70
2024/01/10 01:19:02;;;;;;;;;;;;;;;-140.72;0.00;52601.91;5103066;28;19924;-70
2024/01/10 01:21:27;;;;;;;;;;;;;;;-140.72;0.00;52561.31;5101176;28;20369;-70
2024/01/10 01:23:54;;;;;;;;;;;;;;;-140.72;0.00;52569.44;5099074;28;20010;-70
2024/01/10 01:26:19;;;;;;;;;;;;;;;-140.72;0.00;52541.03;5094536;28;20338;-71
2024/01/10 01:28:44;;;;;;;;;;;;;;;-140.72;0.00;52541.03;5097147;28;20019;-71
2024/01/10 01:31:09;;;;;;;;;;;;;;;-140.72;0.00;52561.31;5095826;28;20445;-71
2024/01/10 01:33:35;;;;;;;;;;;;;;;-140.72;0.00;52549.13;5098993;28;20395;-70
2024/01/10 01:36:00;;;;;;;;;;;;;;;-140.72;0.00;52593.78;5096680;28;20326;-70
2024/01/10 01:38:25;;;;;;;;;;;;;;;-140.72;0.00;52536.97;5096433;28;20378;-70
2024/01/10 01:40:51;;;;;;;;;;;;;;;-140.72;0.00;52549.13;5084651;28;19920;-71
2024/01/10 01:43:23;;;;;;;;;;;;;;;-140.72;0.00;52559.28;5076903;28;20385;-71
2024/01/10 01:45:50;;;;;;;;;;;;;;;-140.72;0.00;52561.31;5100496;28;19924;-70
2024/01/10 01:48:16;;;;;;;;;;;;;;;-140.72;0.00;52551.16;5097635;28;19924;-70
2024/01/10 01:50:41;;;;;;;;;;;;;;;-140.72;0.00;52571.47;5098439;28;19961;-70
2024/01/10 01:53:07;;;;;;;;;;;;;;;-140.72;0.00;52573.50;5096865;28;19920;-71
2024/01/10 01:55:32;;;;;;;;;;;;;;;-140.72;0.00;52573.50;5100340;28;19964;-71
2024/01/10 01:57:58;;;;;;;;;;;;;;;-140.72;0.00;52557.25;5098097;28;20249;-71
2024/01/10 02:00:23;;;;;;;;;;;;;;;-140.72;0.00;52565.38;5100279;28;19935;-70
2024/01/10 02:02:48;;;;;;;;;;;;;;;-140.72;0.00;52530.88;5108383;28;19928;-70
2024/01/10 02:05:15;;;;;;;;;;;;;;;-140.72;0.00;52551.16;5097782;28;19927;-71
2024/01/10 02:07:40;;;;;;;;;;;;;;;-140.72;0.00;52571.47;5102172;28;19920;-71
2024/01/10 02:10:05;;;;;;;;;;;;;;;-140.72;0.00;52536.97;5099144;28;19920;-71
2024/01/10 02:12:31;;;;;;;;;;;;;;;-140.72;0.00;52526.81;5099107;28;19924;-71
2024/01/10 02:14:56;;;;;;;;;;;;;;;-140.72;0.00;52549.13;5096629;28;19972;-71
2024/01/10 02:17:21;;;;;;;;;;;;;;;-140.72;0.00;52561.31;5100571;28;19920;-71
2024/01/10 02:19:47;;;;;;;;;;;;;;;-140.72;0.00;52569.44;5096154;28;19920;-71
2024/01/10 02:22:12;;;;;;;;;;;;;;;-140.72;0.00;52545.06;5100522;28;19920;-71
2024/01/10 02:24:37;;;;;;;;;;;;;;;-140.72;0.00;52557.25;5102261;28;19969;-71
2024/01/10 02:27:03;;;;;;;;;;;;;;;-140.72;0.00;52612.03;5097693;28;20297;-71
2024/01/10 02:29:28;;;;;;;;;;;;;;;-140.72;0.00;52524.78;5076308;28;19926;-70
2024/01/10 02:31:53;;;;;;;;;;;;;;;-140.72;0.00;52563.34;5094750;28;19920;-71
2024/01/10 02:34:19;;;;;;;;;;;;;;;-140.72;0.00;52573.50;5100908;28;19920;-70
2024/01/10 02:36:45;;;;;;;;;;;;;;;-140.72;0.00;52539.00;5076442;28;20010;-71
2024/01/10 02:39:10;;;;;;;;;;;;;;;-140.72;0.00;52577.53;5094992;28;20415;-71
2024/01/10 02:41:35;;;;;;;;;;;;;;;-140.72;0.00;52534.94;5102796;28;20076;-71
2024/01/10 02:44:00;;;;;;;;;;;;;;;-140.72;0.00;52575.50;5102512;28;19920;-71
2024/01/10 02:46:28;;;;;;;;;;;;;;;-140.72;0.00;52569.44;5097384;28;19919;-71
2024/01/10 02:48:55;;;;;;;;;;;;;;;-140.72;0.00;52573.50;5101452;28;19927;-71
2024/01/10 02:51:21;;;;;;;;;;;;;;;-140.72;0.00;52571.47;5097123;28;19928;-71
2024/01/10 02:53:46;;;;;;;;;;;;;;;-140.72;0.00;52585.66;5104843;28;19921;-71
2024/01/10 02:56:11;;;;;;;;;;;;;;;-140.72;0.00;52575.50;5107182;28;20237;-70
2024/01/10 02:58:36;;;;;;;;;;;;;;;-140.72;0.00;52547.09;5104625;28;19920;-71
2024/01/10 03:01:02;;;;;;;;;;;;;;;-140.72;0.00;52518.69;5101382;28;19947;-71
2024/01/10 03:03:27;;;;;;;;;;;;;;;-140.72;0.00;52545.06;5109009;28;20003;-71
2024/01/10 03:05:52;;;;;;;;;;;;;;;-140.72;0.00;52571.47;5103534;28;19934;-70
2024/01/10 03:08:17;;;;;;;;;;;;;;;-140.72;0.00;52569.44;5081367;28;19924;-71
2024/01/10 03:10:43;;;;;;;;;;;;;;;-140.72;0.00;52577.53;5100721;28;19944;-71
2024/01/10 03:13:09;;;;;;;;;;;;;;;-140.72;0.00;52581.59;5100293;28;20416;-71
2024/01/10 03:15:34;;;;;;;;;;;;;;;-140.72;0.00;52595.81;5099811;28;19971;-71
2024/01/10 03:17:59;;;;;;;;;;;;;;;-140.72;0.00;52536.97;5101348;28;19981;-71
2024/01/10 03:20:25;;;;;;;;;;;;;;;-140.72;0.00;52571.47;5094897;28;19927;-71
2024/01/10 03:22:50;;;;;;;;;;;;;;;-140.72;0.00;52622.19;5104253;28;20008;-71
2024/01/10 03:25:15;;;;;;;;;;;;;;;-140.72;0.00;52553.19;5100672;28;20051;-70
2024/01/10 03:27:40;;;;;;;;;;;;;;;-140.72;0.00;52573.50;5085390;28;20014;-71
2024/01/10 03:30:06;;;;;;;;;;;;;;;-140.72;0.00;52595.81;5101194;28;20400;-71
2024/01/10 03:32:31;;;;;;;;;;;;;;;-140.72;0.00;52573.50;5099982;28;19920;-71
2024/01/10 03:34:57;;;;;;;;;;;;;;;-140.72;0.00;52549.13;5100897;28;19928;-71
2024/01/10 03:37:22;;;;;;;;;;;;;;;-140.72;0.00;52575.50;5102685;28;19926;-71
2024/01/10 03:39:47;;;;;;;;;;;;;;;-140.72;0.00;52571.47;5102566;28;19934;-71
2024/01/10 03:42:13;;;;;;;;;;;;;;;-140.72;0.00;52563.34;5105052;28;19989;-71
2024/01/10 03:44:38;;;;;;;;;;;;;;;-140.72;0.00;52583.63;5084673;28;20382;-71
2024/01/10 03:47:03;;;;;;;;;;;;;;;-140.72;0.00;52593.78;5104126;28;19928;-71
2024/01/10 03:49:28;;;;;;;;;;;;;;;-140.72;0.00;52581.59;5086972;28;19932;-71
2024/01/10 03:51:53;;;;;;;;;;;;;;;-140.72;0.00;52573.50;5100581;28;19924;-71
2024/01/10 03:54:19;;;;;;;;;;;;;;;-140.72;0.00;52569.44;5098446;28;20006;-71
2024/01/10 03:56:44;;;;;;;;;;;;;;;-140.72;0.00;52577.53;5100489;28;20293;-71
2024/01/10 03:59:09;;;;;;;;;;;;;;;-140.72;0.00;52581.59;5103999;28;20349;-71
2024/01/10 04:01:34;;;;;;;;;;;;;;;-140.72;0.00;52581.59;5099408;28;20246;-71
2024/01/10 04:04:00;;;;;;;;;;;;;;;-140.72;0.00;52553.19;5096673;28;19981;-72
2024/01/10 04:06:25;;;;;;;;;;;;;;;-140.72;0.00;52532.91;5106738;28;19919;-71
2024/01/10 04:08:50;;;;;;;;;;;;;;;-140.72;0.00;52577.53;5108016;28;19955;-71
2024/01/10 04:11:15;;;;;;;;;;;;;;;-140.72;0.00;52577.53;5099992;28;20007;-71
2024/01/10 04:13:41;;;;;;;;;;;;;;;-140.72;0.00;52597.84;5100987;28;19920;-71
2024/01/10 04:16:06;;;;;;;;;;;;;;;-140.72;0.00;52603.94;5085709;28;20037;-71
2024/01/10 04:18:31;;;;;;;;;;;;;;;-140.72;0.00;52622.19;5094475;28;19961;-71
2024/01/10 04:20:56;;;;;;;;;;;;;;;-140.72;0.00;52612.03;5085978;28;20370;-71
2024/01/10 04:23:22;;;;;;;;;;;;;;;-140.72;0.00;52597.84;5089012;28;19920;-71
2024/01/10 04:25:48;;;;;;;;;;;;;;;-140.72;0.00;52589.72;5087058;28;20416;-71
2024/01/10 04:28:13;;;;;;;;;;;;;;;-140.72;0.00;52585.66;5086658;28;19916;-71
2024/01/10 04:30:38;;;;;;;;;;;;;;;-140.72;0.00;52640.44;5089249;28;19974;-71
2024/01/10 04:33:04;;;;;;;;;;;;;;;-140.72;0.00;52571.47;5077299;28;19916;-71
2024/01/10 04:35:29;;;;;;;;;;;;;;;-140.72;0.00;52583.63;5096968;28;19928;-71
2024/01/10 04:37:54;;;;;;;;;;;;;;;-140.72;0.00;52601.91;5104257;28;19920;-71
2024/01/10 04:40:19;;;;;;;;;;;;;;;-140.72;0.00;52591.75;5100776;28;20361;-72
2024/01/10 04:42:45;;;;;;;;;;;;;;;-140.72;0.00;52607.97;5099741;28;20443;-71
2024/01/10 04:45:10;;;;;;;;;;;;;;;-140.72;0.00;52587.69;5081343;28;19920;-71
2024/01/10 04:47:35;;;;;;;;;;;;;;;-140.72;0.00;52557.25;5101963;28;19927;-72
2024/01/10 04:50:00;;;;;;;;;;;;;;;-140.72;0.00;52589.72;5094199;28;20006;-71
2024/01/10 04:52:26;;;;;;;;;;;;;;;-140.72;0.00;52569.44;5100875;28;19970;-71
2024/01/10 04:54:51;;;;;;;;;;;;;;;-140.72;0.00;52561.31;5092316;28;19924;-71
2024/01/10 04:57:16;;;;;;;;;;;;;;;-140.72;0.00;52603.94;5084348;28;19926;-72
2024/01/10 04:59:41;;;;;;;;;;;;;;;-140.72;0.00;52549.13;5079388;28;20010;-71
2024/01/10 05:02:07;;;;;;;;;;;;;;;-140.72;0.00;52605.94;5097765;28;19954;-71
2024/01/10 05:04:32;;;;;;;;;;;;;;;-140.72;0.00;52559.28;5094013;28;19947;-71
2024/01/10 05:06:57;;;;;;;;;;;;;;;-140.72;0.00;52581.59;5097004;28;19960;-71
2024/01/10 05:09:22;;;;;;;;;;;;;;;-140.72;0.00;52589.72;5095629;28;19954;-71
2024/01/10 05:11:50;;;;;;;;;;;;;;;-140.72;0.00;52565.38;5099661;28;20033;-72
2024/01/10 05:14:16;;;;;;;;;;;;;;;-140.72;0.00;52628.28;5079900;28;20409;-74
2024/01/10 05:16:41;;;;;;;;;;;;;;;-140.72;0.00;52599.88;5081511;28;19967;-76
2024/01/10 05:19:06;;;;;;;;;;;;;;;-140.72;0.00;52601.91;5080345;28;19919;-74
2024/01/10 05:21:33;;;;;;;;;;;;;;;-140.72;0.00;52573.50;5097917;28;19985;-73
2024/01/10 05:23:58;;;;;;;;;;;;;;;-140.72;0.00;52565.38;5097382;28;19946;-74
2024/01/10 05:26:24;;;;;;;;;;;;;;;-140.72;0.00;52614.06;5097676;28;20026;-74
2024/01/10 05:28:49;;;;;;;;;;;;;;;-140.72;0.00;52614.06;5076704;28;19945;-76
2024/01/10 05:31:15;;;;;;;;;;;;;;;-140.72;0.00;52571.47;5080767;28;20360;-74
2024/01/10 05:33:42;;;;;;;;;;;;;;;-140.72;0.00;52563.34;5088791;28;19932;-74
2024/01/10 05:36:07;;;;;;;;;;;;;;;-140.72;0.00;52561.31;5085948;28;19973;-74
2024/01/10 05:38:32;;;;;;;;;;;;;;;-140.72;0.00;52581.59;5074231;28;19956;-72
2024/01/10 05:40:58;;;;;;;;;;;;;;;-140.72;0.00;52612.03;5098132;28;19955;-72
2024/01/10 05:43:23;;;;;;;;;;;;;;;-140.72;0.00;52593.78;5074297;28;20425;-71
2024/01/10 05:45:48;;;;;;;;;;;;;;;-140.72;0.00;52587.69;5098269;28;19927;-72
2024/01/10 05:48:14;;;;;;;;;;;;;;;-140.72;0.00;52612.03;5094552;28;20007;-71
2024/01/10 05:50:39;;;;;;;;;;;;;;;-140.72;0.00;52593.78;5075840;28;20381;-71
2024/01/10 05:53:04;;;;;;;;;;;;;;;-140.72;0.00;52597.84;5095907;28;20335;-71
2024/01/10 05:55:29;;;;;;;;;;;;;;;-140.72;0.00;52585.66;5088806;28;21026;-71
2024/01/10 05:57:54;;;;;;;;;;;;;;;-140.72;0.00;52595.81;5098291;28;19939;-74
2024/01/10 06:00:20;;;;;;;;;;;;;;;-140.72;0.00;52569.44;5079008;28;20420;-71
2024/01/10 06:02:46;;;;;;;;;;;;;;;-140.72;0.00;52614.06;5084757;28;19928;-71
2024/01/10 06:05:12;;;;;;;;;;;;;;;-140.72;0.00;52565.38;5093197;28;19943;-70
2024/01/10 06:07:38;;;;;;;;;;;;;;;-140.72;0.00;52541.03;5096833;28;19924;-72
2024/01/10 06:10:03;;;;;;;;;;;;;;;-140.72;0.00;52557.25;5097969;28;19920;-73
2024/01/10 06:12:29;;;;;;;;;;;;;;;-140.72;0.00;52581.59;5097813;28;20365;-70
2024/01/10 06:14:54;;;;;;;;;;;;;;;-140.72;0.00;52601.91;5101333;28;19981;-71
2024/01/10 06:17:19;;;;;;;;;;;;;;;-140.72;0.00;52597.84;5092306;28;19924;-71
2024/01/10 06:19:45;;;;;;;;;;;;;;;-140.72;0.00;52622.19;5094995;28;19924;-70
2024/01/10 06:22:11;;;;;;;;;;;;;;;-140.72;0.00;52601.91;5091740;28;19932;-71
2024/01/10 06:24:37;;;;;;;;;;;;;;;-140.72;0.00;52593.78;5099589;28;19920;-71
2024/01/10 06:27:02;;;;;;;;;;;;;;;-140.72;0.00;52622.19;5102632;28;20045;-72
2024/01/10 06:29:28;;;;;;;;;;;;;;;-140.72;0.00;52607.97;5097878;28;19974;-72
2024/01/10 06:31:53;;;;;;;;;;;;;;;-140.72;0.00;52607.97;5106792;28;20240;-72
2024/01/10 06:34:18;;;;;;;;;;;;;;;-140.72;0.00;52587.69;5083225;28;19920;-72
2024/01/10 06:36:44;;;;;;;;;;;;;;;-140.72;0.00;52565.38;5099862;28;19971;-72
2024/01/10 06:39:12;;;;;;;;;;;;;;;-140.72;0.00;52585.66;5094461;28;20047;-72
2024/01/10 06:41:37;;;;;;;;;;;;;;;-140.72;0.00;52532.91;5096207;28;20048;-72
2024/01/10 06:44:04;;;;;;;;;;;;;;;-140.72;0.00;52599.88;5084823;28;19920;-73
2024/01/10 06:46:30;;;;;;;;;;;;;;;-140.72;0.00;52569.44;5087529;28;20250;-71
2024/01/10 06:48:55;;;;;;;;;;;;;;;-140.72;0.00;52612.03;5077759;28;19974;-72
2024/01/10 06:51:21;;;;;;;;;;;;;;;-140.72;0.00;52583.63;5096531;28;19927;-72
2024/01/10 06:53:46;;;;;;;;;;;;;;;-140.72;0.00;52567.41;5101744;28;19947;-71
2024/01/10 06:56:11;;;;;;;;;;;;;;;-140.72;0.00;52599.88;5097679;28;19939;-72
2024/01/10 06:58:37;;;;;;;;;;;;;;;-140.72;0.00;52626.25;5082510;28;20302;-71
2024/01/10 07:01:05;;;;;;;;;;;;;;;-140.72;0.00;52616.09;5090962;28;19928;-71
2024/01/10 07:03:30;;;;;;;;;;;;;;;-140.72;0.00;52559.28;5104767;28;19920;-72
2024/01/10 07:05:58;;;;;;;;;;;;;;;-140.72;0.00;52601.91;5100959;28;20678;-72
2024/01/10 07:08:25;;;;;;;;;;;;;;;-140.72;0.00;52593.78;5101186;28;20439;-72
2024/01/10 07:10:50;;;;;;;;;;;;;;;-140.72;0.00;52618.13;5104874;28;19981;-72
2024/01/10 07:13:15;;;;;;;;;;;;;;;-140.72;0.00;52593.78;5102660;28;19919;-72
2024/01/10 07:15:40;;;;;;;;;;;;;;;-140.72;0.00;52581.59;5099683;28;20234;-72
2024/01/10 07:18:06;;;;;;;;;;;;;;;-140.72;0.00;52571.47;5110216;28;20396;-74
2024/01/10 07:20:32;;;;;;;;;;;;;;;-140.72;0.00;52597.84;5080916;28;20390;-72
2024/01/10 07:22:59;;;;;;;;;;;;;;;-140.72;0.00;52605.94;5111157;28;19980;-72
2024/01/10 07:25:25;;;;;;;;;;;;;;;-140.72;0.00;52587.69;5076383;28;19917;-71
2024/01/10 07:27:50;;;;;;;;;;;;;;;-140.72;0.00;52636.38;5100265;28;20382;-71
2024/01/10 07:30:16;;;;;;;;;;;;;;;-140.72;0.00;52622.19;5080308;28;19963;-72
2024/01/10 07:32:44;;;;;;;;;;;;;;;-140.72;0.00;52620.16;5104576;28;19920;-71
2024/01/10 07:35:10;;;;;;;;;;;;;;;-140.72;0.00;52616.09;5101686;28;19920;-72
2024/01/10 07:37:39;;;;;;;;;;;;;;;-140.72;0.00;52601.91;5102316;28;19972;-71
2024/01/10 07:40:06;;;;;;;;;;;;;;;-140.72;0.00;52599.88;5096290;28;20281;-71
2024/01/10 07:42:31;;;;;;;;;;;;;;;-140.72;0.00;52587.69;5106303;28;19919;-74
2024/01/10 07:44:57;;;;;;;;;;;;;;;-140.72;0.00;52616.09;5084714;28;20063;-73
2024/01/10 07:47:22;;;;;;;;;;;;;;;-140.72;0.00;52585.66;5087420;28;19927;-73
2024/01/10 07:49:47;;;;;;;;;;;;;;;-140.72;0.00;52618.13;5075698;28;20296;-72
2024/01/10 07:52:12;;;;;;;;;;;;;;;-140.72;0.00;52534.94;5079797;28;20325;-73
2024/01/10 07:54:37;;;;;;;;;;;;;;;-140.72;0.00;52593.78;5096410;28;19924;-72
2024/01/10 07:57:03;;;;;;;;;;;;;;;-140.72;0.00;52622.19;5089633;28;20384;-72
2024/01/10 07:59:28;;;;;;;;;;;;;;;-140.72;0.00;52614.06;5098100;28;20400;-72
2024/01/10 08:01:59;;;;;;;;;;;;;;;-140.72;0.00;52618.13;5101086;28;19927;-73
2024/01/10 08:04:25;;;;;;;;;;;;;;;-140.72;0.00;52599.88;5099975;28;19920;-75
2024/01/10 08:06:51;;;;;;;;;;;;;;;-140.72;0.00;52624.22;5086336;28;20392;-72
2024/01/10 08:09:16;;;;;;;;;;;;;;;-140.72;0.00;52591.75;5080805;28;19928;-73
2024/01/10 08:11:41;;;;;;;;;;;;;;;-140.72;0.00;52642.47;5088220;28;20366;-73
2024/01/10 08:14:12;;;;;;;;;;;;;;;-140.72;0.00;52624.22;5079524;28;20416;-74
2024/01/10 08:16:37;;;;;;;;;;;;;;;-140.72;0.00;52597.84;5085080;28;19927;-74
2024/01/10 08:19:02;;;;;;;;;;;;;;;-140.72;0.00;52591.75;5099225;28;19920;-72
2024/01/10 08:21:28;;;;;;;;;;;;;;;-140.72;0.00;52591.75;5082001;28;20365;-72
2024/01/10 08:23:53;;;;;;;;;;;;;;;-140.72;0.00;52624.22;5100794;28;19920;-72
2024/01/10 08:26:18;;;;;;;;;;;;;;;-140.72;0.00;52616.09;5089734;28;19920;-71
2024/01/10 08:28:43;;;;;;;;;;;;;;;-140.72;0.00;52565.38;5078173;28;19920;-71
2024/01/10 08:31:08;;;;;;;;;;;;;;;-140.72;0.00;52610.00;5092324;28;19952;-72
2024/01/10 08:33:34;;;;;;;;;;;;;;;-140.72;0.00;52618.13;5079638;28;19928;-72
2024/01/10 08:35:59;;;;;;;;;;;;;;;-140.72;0.00;52573.50;5096563;28;19942;-73
2024/01/10 08:38:24;;;;;;;;;;;;;;;-140.72;0.00;52630.31;5073552;28;19920;-72
2024/01/10 08:40:49;;;;;;;;;;;;;;;-140.72;0.00;52573.50;5093098;28;19928;-72
2024/01/10 08:43:15;;;;;;;;;;;;;;;-140.72;0.00;52569.44;5083685;28;19934;-72
2024/01/10 08:45:40;;;;;;;;;;;;;;;-140.72;0.00;52618.13;5089762;28;19955;-72
2024/01/10 08:48:06;;;;;;;;;;;;;;;-140.72;0.00;52620.16;5094848;28;19995;-72
2024/01/10 08:50:32;;;;;;;;;;;;;;;-140.72;0.00;52561.31;5093907;28;19924;-72
2024/01/10 08:52:57;;;;;;;;;;;;;;;-140.72;0.00;52547.09;5079525;28;19928;-72
2024/01/10 08:55:23;;;;;;;;;;;;;;;-140.72;0.00;52610.00;5073374;28;19925;-72
2024/01/10 08:57:48;;;;;;;;;;;;;;;-140.72;0.00;52559.28;5089200;28;20310;-72
2024/01/10 09:00:16;;;;;;;;;;;;;;;-140.72;0.00;52549.13;5075085;28;19927;-72
2024/01/10 09:02:42;;;;;;;;;;;;;;;-140.72;0.00;52571.47;5081619;28;20278;-72
2024/01/10 09:05:09;;;;;;;;;;;;;;;-140.72;0.00;52543.03;5082070;28;19978;-72
2024/01/10 09:07:34;;;;;;;;;;;;;;;-140.72;0.00;52565.38;5083370;28;19928;-72
2024/01/10 09:10:00;;;;;;;;;;;;;;;-140.72;0.00;52545.06;5078943;28;19920;-73
2024/01/10 09:12:25;;;;;;;;;;;;;;;-140.72;0.00;52534.94;5079960;28;19978;-73
2024/01/10 09:14:50;;;;;;;;;;;;;;;-140.72;0.00;52575.50;5078212;28;19952;-73
2024/01/10 09:17:16;;;;;;;;;;;;;;;-140.72;0.00;52567.41;5073679;28;20289;-72
2024/01/10 09:19:41;;;;;;;;;;;;;;;-140.72;0.00;52581.59;5077321;28;19932;-72
2024/01/10 09:22:06;;;;;;;;;;;;;;;-140.72;0.00;52547.09;5076497;28;19929;-72
2024/01/10 09:24:31;;;;;;;;;;;;;;;-140.72;0.00;52534.94;5079320;28;19924;-72
2024/01/10 09:26:57;;;;;;;;;;;;;;;-140.72;0.00;52528.84;5080239;28;19955;-72
2024/01/10 09:29:23;;;;;;;;;;;;;;;-140.72;0.00;52585.66;5095660;28;20013;-72
2024/01/10 09:31:48;;;;;;;;;;;;;;;-140.72;0.00;52543.03;5080235;28;20374;-72
2024/01/10 09:34:13;;;;;;;;;;;;;;;-140.72;0.00;52565.38;5075995;28;20011;-72
2024/01/10 09:36:39;;;;;;;;;;;;;;;-140.72;0.00;52569.44;5087190;28;20344;-72
2024/01/10 09:39:05;;;;;;;;;;;;;;;-140.72;0.00;52557.25;5079480;28;19917;-72
2024/01/10 09:41:31;;;;;;;;;;;;;;;-140.72;0.00;52520.72;5082855;28;19928;-76
2024/01/10 09:43:57;;;;;;;;;;;;;;;-140.72;0.00;52553.19;5076806;28;19930;-74
2024/01/10 09:46:23;;;;;;;;;;;;;;;-140.72;0.00;52553.19;5081069;28;20010;-72
2024/01/10 09:48:48;;;;;;;;;;;;;;;-140.72;0.00;52561.31;5078195;28;19926;-72
2024/01/10 09:51:14;;;;;;;;;;;;;;;-140.72;0.00;52536.97;5079145;28;20019;-72
2024/01/10 09:53:43;;;;;;;;;;;;;;;-140.72;0.00;52549.13;5095954;28;19920;-72
2024/01/10 09:56:10;;;;;;;;;;;;;;;-140.72;0.00;52530.88;5099642;28;20337;-72
2024/01/10 09:58:39;;;;;;;;;;;;;;;-140.72;0.00;52545.06;5081541;28;20325;-72
2024/01/10 10:01:05;;;;;;;;;;;;;;;-140.72;0.00;52543.03;5092228;28;19919;-73
2024/01/10 10:03:31;;;;;;;;;;;;;;;-140.72;0.00;52472.03;5098522;28;20744;-73
2024/01/10 10:05:57;;;;;;;;;;;;;;;-140.72;0.00;52534.94;5080557;28;19935;-72
2024/01/10 10:08:22;;;;;;;;;;;;;;;-140.72;0.00;52569.44;5089438;28;19927;-74
2024/01/10 10:10:51;;;;;;;;;;;;;;;-140.72;0.00;52528.84;5072538;28;20297;-75
2024/01/10 10:13:26;;;;;;;;;;;;;;;-140.72;0.00;52516.66;5072836;28;19926;-73
2024/01/10 10:16:01;;;;;;;;;;;;;;;-140.72;0.00;52520.72;5087004;28;20305;-73
2024/01/10 10:18:27;;;;;;;;;;;;;;;-140.72;0.00;52581.59;5069985;28;19920;-75
2024/01/10 10:21:11;;;;;;;;;;;;;;;-140.72;0.00;52490.28;5072341;28;19927;-74
2024/01/10 10:23:40;;;;;;;;;;;;;;;-140.72;0.00;52520.72;5076816;28;19927;-77
2024/01/10 10:26:13;;;;;;;;;;;;;;;-140.72;0.00;52571.47;5102481;28;19928;-75
2024/01/10 10:28:40;;;;;;;;;;;;;;;-140.72;0.00;52526.81;5077632;28;19928;-74
2024/01/10 10:31:05;;;;;;;;;;;;;;;-140.72;0.00;52484.19;5091807;28;20382;-75
2024/01/10 10:33:32;;;;;;;;;;;;;;;-140.72;0.00;52534.94;5074571;28;19959;-74
2024/01/10 10:35:57;;;;;;;;;;;;;;;-140.72;0.00;52496.38;5073704;28;19920;-74
2024/01/10 10:38:23;;;;;;;;;;;;;;;-140.72;0.00;52492.31;5091556;28;20026;-76
2024/01/10 10:40:48;;;;;;;;;;;;;;;-140.72;0.00;52486.22;5073282;28;20031;-76
2024/01/10 10:43:18;;;;;;;;;;;;;;;-140.72;0.00;52512.59;5073544;28;20023;-74
2024/01/10 10:45:47;;;;;;;;;;;;;;;-140.72;0.00;52474.06;5069495;28;20001;-73
2024/01/10 10:48:15;;;;;;;;;;;;;;;-140.72;0.00;52467.97;5089658;28;19936;-73
2024/01/10 10:50:40;;;;;;;;;;;;;;;-140.72;0.00;52480.16;5082782;28;20388;-73
2024/01/10 10:53:06;;;;;;;;;;;;;;;-140.72;0.00;52472.03;5069108;28;19916;-73
2024/01/10 10:55:33;;;;;;;;;;;;;;;-140.72;0.00;52470.00;5088839;28;20023;-73
2024/01/10 10:57:58;;;;;;;;;;;;;;;-140.72;0.00;52500.44;5089138;28;19998;-74
2024/01/10 11:00:27;;;;;;;;;;;;;;;-140.72;0.00;52530.88;5073226;28;19935;-72
2024/01/10 11:02:53;;;;;;;;;;;;;;;-140.72;0.00;52504.50;5089753;28;19920;-73
2024/01/10 11:05:19;;;;;;;;;;;;;;;-140.72;0.00;52478.13;5073532;28;19931;-77
2024/01/10 11:07:44;;;;;;;;;;;;;;;-140.72;0.00;52512.59;5072396;28;19920;-74
2024/01/10 11:10:13;;;;;;;;;;;;;;;-140.72;0.00;52488.25;5091640;28;20400;-73
2024/01/10 11:12:59;;;;;;;;;;;;;;;-140.72;0.00;52467.97;5082461;28;19931;-72
2024/01/10 11:15:35;;;;;;;;;;;;;;;-140.72;0.00;52492.31;5077898;28;20539;-73
2024/01/10 11:18:16;;;;;;;;;;;;;;;-140.72;0.00;52484.19;5097073;28;19967;-73
2024/01/10 11:20:53;;;;;;;;;;;;;;;-140.72;0.00;52465.94;5091146;28;19927;-72
2024/01/10 11:23:22;;;;;;;;;;;;;;;-140.72;0.00;52470.00;5084185;28;20045;-73
2024/01/10 11:25:48;;;;;;;;;;;;;;;-140.72;0.00;52476.09;5084833;28;19942;-73
2024/01/10 11:28:13;;;;;;;;;;;;;;;-140.72;0.00;52482.16;5093398;28;19926;-73
2024/01/10 11:30:48;;;;;;;;;;;;;;;-140.72;0.00;52474.06;5094948;28;20269;-73
2024/01/10 11:33:23;;;;;;;;;;;;;;;-140.72;0.00;52463.91;5082200;28;19916;-73
2024/01/10 11:36:10;;;;;;;;;;;;;;;-140.72;0.00;52467.97;5073938;28;20023;-73
2024/01/10 11:38:48;;;;;;;;;;;;;;;-140.72;0.00;52492.31;5077426;28;20006;-73
2024/01/10 11:41:24;;;;;;;;;;;;;;;-140.72;0.00;52472.03;5085649;28;20019;-73
2024/01/10 11:44:08;;;;;;;;;;;;;;;-140.72;0.00;52472.03;5074865;28;19920;-76
2024/01/10 11:46:33;;;;;;;;;;;;;;;-140.72;0.00;52486.22;5089494;28;20056;-72
2024/01/10 11:48:59;;;;;;;;;;;;;;;-140.72;0.00;52443.63;5077293;28;20363;-74
2024/01/10 11:51:24;;;;;;;;;;;;;;;-140.72;0.00;52467.97;5064715;28;19917;-74
2024/01/10 11:53:50;;;;;;;;;;;;;;;-140.72;0.00;52482.16;5094717;28;19916;-71
2024/01/10 11:56:16;;;;;;;;;;;;;;;-140.72;0.00;52411.16;5078351;28;19923;-72
2024/01/10 11:58:56;;;;;;;;;;;;;;;-140.72;0.00;52459.84;5086694;28;19927;-72
2024/01/10 12:01:22;;;;;;;;;;;;;;;-140.72;0.00;52488.25;5090417;28;19991;-73
2024/01/10 12:03:50;;;;;;;;;;;;;;;-140.72;0.00;52455.78;5085538;28;20288;-75
2024/01/10 12:06:16;;;;;;;;;;;;;;;-140.72;0.00;52455.78;5103356;28;19916;-72
2024/01/10 12:08:41;;;;;;;;;;;;;;;-140.72;0.00;52457.81;5112970;28;19930;-73
2024/01/10 12:11:07;;;;;;;;;;;;;;;-140.72;0.00;52451.72;5114797;28;20336;-72
2024/01/10 12:13:32;;;;;;;;;;;;;;;-140.72;0.00;52461.88;5093989;28;20295;-73
2024/01/10 12:15:58;;;;;;;;;;;;;;;-140.72;0.00;52447.69;5099249;28;19972;-73
2024/01/10 12:18:23;;;;;;;;;;;;;;;-140.72;0.00;52425.34;5076490;28;19920;-73
2024/01/10 12:20:48;;;;;;;;;;;;;;;-140.72;0.00;52451.72;5074005;28;19927;-72
2024/01/10 12:23:14;;;;;;;;;;;;;;;-140.72;0.00;52439.56;5077673;28;19928;-73
2024/01/10 12:25:39;;;;;;;;;;;;;;;-140.72;0.00;52423.31;5079519;28;20404;-72
2024/01/10 12:28:04;;;;;;;;;;;;;;;-140.72;0.00;52470.00;5073247;28;20015;-72
2024/01/10 12:30:30;;;;;;;;;;;;;;;-140.72;0.00;52478.13;5093711;28;19931;-73